createdAt,value
2023-05-21T00:02:25.057Z,16.25
2023-05-21T00:04:53.465Z,16.53
2023-05-21T00:07:21.783Z,17.48
2023-05-21T00:09:50.152Z,19.70
2023-05-21T00:12:18.574Z,17.33
2023-05-21T00:14:46.936Z,17.40
2023-05-21T00:17:16.390Z,15.07
2023-05-21T00:19:44.767Z,17.05
2023-05-21T00:22:14.274Z,16.10
2023-05-21T00:24:42.635Z,14.25
2023-05-21T00:27:11.244Z,14.65
2023-05-21T00:29:39.629Z,15.63
2023-05-21T00:32:08.225Z,15.15
2023-05-21T00:34:38.341Z,17.90
2023-05-21T00:37:06.955Z,15.73
2023-05-21T00:39:35.308Z,17.38
2023-05-21T00:42:03.937Z,17.87
2023-05-21T00:44:34.488Z,16.35
2023-05-21T00:47:03.306Z,18.30
2023-05-21T00:49:32.589Z,15.60
2023-05-21T00:52:02.508Z,15.80
2023-05-21T00:54:33.354Z,14.53
2023-05-21T00:57:01.885Z,15.68
2023-05-21T00:59:30.460Z,15.70
2023-05-21T01:02:04.353Z,15.35
2023-05-21T01:04:32.840Z,15.98
2023-05-21T01:07:02.262Z,18.13
2023-05-21T01:09:30.636Z,16.42
2023-05-21T01:12:00.934Z,17.25
2023-05-21T01:14:29.346Z,14.70
2023-05-21T01:16:57.822Z,15.77
2023-05-21T01:19:26.763Z,18.50
2023-05-21T01:22:01.536Z,15.55
2023-05-21T01:24:31.385Z,15.45
2023-05-21T01:27:01.329Z,16.05
2023-05-21T01:29:29.802Z,15.43
2023-05-21T01:32:02.953Z,14.50
2023-05-21T01:34:41.108Z,15.55
2023-05-21T01:37:16.030Z,14.30
2023-05-21T01:39:51.941Z,14.98
2023-05-21T01:42:23.638Z,14.35
2023-05-21T01:44:55.986Z,16.53
2023-05-21T01:47:25.704Z,12.90
2023-05-21T01:49:54.230Z,15.15
2023-05-21T01:52:24.947Z,15.63
2023-05-21T01:54:54.484Z,14.77
2023-05-21T01:57:23.107Z,14.87
2023-05-21T01:59:53.342Z,14.27
2023-05-21T02:02:21.949Z,14.68
2023-05-21T02:04:50.538Z,19.40
2023-05-21T02:07:19.949Z,16.55
2023-05-21T02:09:48.369Z,15.73
2023-05-21T02:12:17.952Z,14.75
2023-05-21T02:14:50.470Z,15.65
2023-05-21T02:17:19.062Z,17.08
2023-05-21T02:19:47.501Z,16.85
2023-05-21T02:22:15.954Z,20.40
2023-05-21T02:24:44.585Z,13.60
2023-05-21T02:27:13.776Z,15.30
2023-05-21T02:29:43.490Z,15.63
2023-05-21T02:32:12.263Z,15.70
2023-05-21T02:34:42.900Z,14.67
2023-05-21T02:37:11.318Z,14.70
2023-05-21T02:39:39.758Z,15.15
2023-05-21T02:42:09.217Z,16.27
2023-05-21T02:44:37.842Z,15.93
2023-05-21T02:47:10.396Z,15.60
2023-05-21T02:49:38.954Z,15.85
2023-05-21T02:52:07.508Z,17.40
2023-05-21T02:54:36.050Z,14.20
2023-05-21T02:57:04.649Z,17.20
2023-05-21T02:59:33.224Z,15.83
2023-05-21T03:02:02.358Z,14.10
2023-05-21T03:04:33.187Z,15.05
2023-05-21T03:07:02.192Z,14.23
2023-05-21T03:09:30.852Z,15.57
2023-05-21T03:11:59.939Z,14.90
2023-05-21T03:14:29.181Z,14.48
2023-05-21T03:16:58.403Z,15.68
2023-05-21T03:19:27.283Z,12.35
2023-05-21T03:21:56.951Z,15.02
2023-05-21T03:24:26.339Z,13.97
2023-05-21T03:26:55.133Z,14.05
2023-05-21T03:29:23.832Z,13.23
2023-05-21T03:31:53.856Z,13.75
2023-05-21T03:34:22.628Z,15.10
2023-05-21T03:36:51.563Z,14.23
2023-05-21T03:39:21.695Z,17.58
2023-05-21T03:41:50.528Z,15.05
2023-05-21T03:44:32.325Z,14.50
2023-05-21T03:47:19.876Z,13.43
2023-05-21T03:49:49.264Z,12.80
2023-05-21T03:52:17.845Z,14.27
2023-05-21T03:54:47.358Z,15.77
2023-05-21T03:57:15.963Z,14.73
2023-05-21T03:59:45.337Z,14.27
2023-05-21T04:02:13.921Z,13.40
2023-05-21T04:04:44.537Z,13.38
2023-05-21T04:07:15.474Z,14.00
2023-05-21T04:09:44.098Z,13.30
2023-05-21T04:12:13.613Z,13.02
2023-05-21T04:14:42.080Z,11.33
2023-05-21T04:17:13.027Z,12.10
2023-05-21T04:19:42.439Z,13.70
2023-05-21T04:22:12.127Z,12.57
2023-05-21T04:24:40.632Z,14.43
2023-05-21T04:27:16.838Z,18.63
2023-05-21T04:29:46.168Z,12.25
2023-05-21T04:32:15.306Z,12.05
2023-05-21T04:34:43.848Z,12.40
2023-05-21T04:37:12.309Z,14.38
2023-05-21T04:39:41.254Z,13.77
2023-05-21T04:42:11.203Z,16.17
2023-05-21T04:44:41.357Z,13.30
2023-05-21T04:47:12.422Z,13.07
2023-05-21T04:49:41.184Z,11.10
2023-05-21T04:52:10.338Z,12.27
2023-05-21T04:54:41.871Z,13.18
2023-05-21T04:57:10.521Z,15.55
2023-05-21T04:59:41.471Z,13.43
2023-05-21T05:02:10.955Z,12.75
2023-05-21T05:04:39.812Z,13.57
2023-05-21T05:07:08.729Z,12.63
2023-05-21T05:09:37.410Z,12.70
2023-05-21T05:12:06.541Z,12.35
2023-05-21T05:14:35.066Z,12.02
2023-05-21T05:17:04.554Z,13.77
2023-05-21T05:19:35.156Z,11.88
2023-05-21T05:22:03.730Z,13.75
2023-05-21T05:24:35.498Z,12.23
2023-05-21T05:27:04.178Z,13.52
2023-05-21T05:29:33.019Z,12.27
2023-05-21T05:32:01.579Z,12.88
2023-05-21T05:34:31.140Z,79.15
2023-05-21T05:36:59.694Z,146.32
2023-05-21T05:39:28.143Z,137.13
2023-05-21T05:41:56.594Z,16.63
2023-05-21T05:44:25.283Z,17.73
2023-05-21T05:46:53.862Z,14.35
2023-05-21T05:49:22.363Z,14.63
2023-05-21T05:51:52.481Z,11.93
2023-05-21T05:54:21.020Z,13.33
2023-05-21T05:56:49.610Z,10.95
2023-05-21T05:59:18.384Z,12.27
2023-05-21T06:01:49.876Z,13.63
2023-05-21T06:04:18.676Z,14.02
2023-05-21T06:06:47.425Z,11.80
2023-05-21T06:09:16.955Z,11.60
2023-05-21T06:11:45.551Z,12.77
2023-05-21T06:14:14.005Z,11.57
2023-05-21T06:16:42.703Z,12.70
2023-05-21T06:19:11.342Z,15.43
2023-05-21T06:21:39.858Z,10.75
2023-05-21T06:24:09.411Z,13.90
2023-05-21T06:26:39.074Z,10.40
2023-05-21T06:29:07.507Z,11.05
2023-05-21T06:31:36.828Z,11.10
2023-05-21T06:34:09.155Z,14.40
2023-05-21T06:36:38.141Z,12.80
2023-05-21T06:39:08.287Z,10.13
2023-05-21T06:41:41.020Z,14.43
2023-05-21T06:44:29.109Z,11.20
2023-05-21T06:47:06.274Z,149.30
2023-05-21T06:49:34.750Z,77.60
2023-05-21T06:52:03.815Z,23.52
2023-05-21T06:54:32.224Z,19.92
2023-05-21T06:57:03.303Z,11.13
2023-05-21T06:59:32.999Z,11.07
2023-05-21T07:02:04.486Z,12.27
2023-05-21T07:04:35.225Z,11.13
2023-05-21T07:07:04.927Z,13.57
2023-05-21T07:09:33.588Z,11.67
2023-05-21T07:12:02.293Z,54.42
2023-05-21T07:14:31.841Z,21.08
2023-05-21T07:17:00.962Z,11.77
2023-05-21T07:19:29.512Z,14.00
2023-05-21T07:21:59.214Z,12.33
2023-05-21T07:24:28.103Z,12.30
2023-05-21T07:26:59.576Z,12.25
2023-05-21T07:29:28.280Z,10.88
2023-05-21T07:31:57.886Z,12.70
2023-05-21T07:34:26.841Z,11.90
2023-05-21T07:36:55.942Z,10.07
2023-05-21T07:39:24.812Z,10.98
2023-05-21T07:41:55.852Z,10.02
2023-05-21T07:44:24.784Z,9.98
2023-05-21T07:46:53.325Z,10.07
2023-05-21T07:49:22.855Z,10.25
2023-05-21T07:51:51.964Z,9.75
2023-05-21T07:54:21.652Z,10.63
2023-05-21T07:56:50.377Z,9.27
2023-05-21T07:59:38.762Z,8.70
2023-05-21T08:02:07.530Z,9.65
2023-05-21T08:04:40.997Z,11.02
2023-05-21T08:07:10.794Z,8.98
2023-05-21T08:09:39.269Z,12.73
2023-05-21T08:12:10.426Z,9.90
2023-05-21T08:14:38.884Z,9.15
2023-05-21T08:17:07.604Z,11.57
2023-05-21T08:19:36.206Z,9.77
2023-05-21T08:22:07.558Z,10.35
2023-05-21T08:24:43.169Z,11.10
2023-05-21T08:27:11.745Z,11.48
2023-05-21T08:29:40.192Z,10.52
2023-05-21T08:32:11.195Z,9.50
2023-05-21T08:34:39.872Z,10.10
2023-05-21T08:37:33.795Z,11.03
2023-05-21T08:40:11.411Z,14.32
2023-05-21T08:42:46.092Z,9.27
2023-05-21T08:45:27.811Z,11.45
2023-05-21T08:48:00.176Z,11.07
2023-05-21T08:50:33.591Z,9.90
2023-05-21T08:53:27.374Z,10.63
2023-05-21T08:55:58.717Z,9.52
2023-05-21T08:58:38.583Z,10.15
2023-05-21T09:01:07.416Z,10.88
2023-05-21T09:03:41.933Z,8.70
2023-05-21T09:06:14.110Z,10.07
2023-05-21T09:08:46.040Z,10.77
2023-05-21T09:11:28.220Z,8.70
2023-05-21T09:13:59.986Z,11.45
2023-05-21T09:16:37.683Z,9.10
2023-05-21T09:19:08.239Z,9.13
2023-05-21T09:22:15.124Z,10.68
2023-05-21T09:24:55.054Z,10.70
2023-05-21T09:27:26.530Z,9.60
2023-05-21T09:29:57.339Z,9.47
2023-05-21T09:32:25.931Z,10.13
2023-05-21T09:34:54.593Z,13.73
2023-05-21T09:37:27.586Z,12.65
2023-05-21T09:39:59.230Z,9.85
2023-05-21T09:42:31.333Z,9.30
2023-05-21T09:45:00.784Z,9.05
2023-05-21T09:47:29.415Z,8.50
2023-05-21T09:49:59.637Z,9.70
2023-05-21T09:52:29.841Z,8.70
2023-05-21T09:54:59.356Z,13.70
2023-05-21T09:57:32.533Z,9.70
2023-05-21T10:00:01.123Z,11.07
2023-05-21T10:02:33.755Z,10.35
2023-05-21T10:05:02.541Z,9.75
2023-05-21T10:07:31.072Z,9.50
2023-05-21T10:10:03.819Z,10.48
2023-05-21T10:12:44.222Z,11.95
2023-05-21T10:15:18.136Z,9.13
2023-05-21T10:17:47.377Z,11.52
2023-05-21T10:20:16.039Z,10.03
2023-05-21T10:22:48.138Z,11.23
2023-05-21T10:25:21.267Z,10.43
2023-05-21T10:27:50.033Z,9.45
2023-05-21T10:30:22.782Z,9.82
2023-05-21T10:33:14.396Z,10.27
2023-05-21T10:35:42.831Z,9.90
2023-05-21T10:38:11.542Z,11.13
2023-05-21T10:40:41.347Z,11.45
2023-05-21T10:43:27.312Z,20.30
2023-05-21T10:46:14.190Z,14.03
2023-05-21T10:49:05.453Z,19.10
2023-05-21T10:51:53.695Z,15.55
2023-05-21T10:54:54.465Z,13.20
2023-05-21T10:57:56.701Z,13.57
2023-05-21T11:00:26.763Z,15.23
2023-05-21T11:02:55.495Z,10.98
2023-05-21T11:05:42.775Z,12.55
2023-05-21T11:08:25.452Z,12.27
2023-05-21T11:10:58.254Z,11.80
2023-05-21T11:13:32.972Z,9.83
2023-05-21T11:16:09.022Z,13.50
2023-05-21T11:19:03.568Z,12.13
2023-05-21T11:21:33.133Z,14.48
2023-05-21T11:24:06.462Z,15.05
2023-05-21T11:27:08.850Z,14.10
2023-05-21T11:29:46.224Z,10.90
2023-05-21T11:32:17.534Z,13.60
2023-05-21T11:34:48.246Z,12.27
2023-05-21T11:37:28.975Z,14.27
2023-05-21T11:39:59.288Z,12.63
2023-05-21T11:42:32.309Z,15.27
2023-05-21T11:45:02.979Z,11.00
2023-05-21T11:47:33.358Z,10.60
2023-05-21T11:50:02.904Z,13.45
2023-05-21T11:52:47.595Z,12.07
2023-05-21T11:55:16.810Z,13.50
2023-05-21T11:57:48.192Z,12.38
2023-05-21T12:00:19.273Z,10.70
2023-05-21T12:02:49.506Z,12.85
2023-05-21T12:05:18.022Z,11.53
2023-05-21T12:07:50.031Z,10.05
2023-05-21T12:10:27.122Z,12.52
2023-05-21T12:12:57.232Z,11.48
2023-05-21T12:15:27.904Z,15.52
2023-05-21T12:17:59.087Z,12.63
2023-05-21T12:20:28.577Z,11.40
2023-05-21T12:23:00.005Z,11.25
2023-05-21T12:25:29.941Z,11.00
2023-05-21T12:28:05.438Z,11.15
2023-05-21T12:30:34.990Z,9.30
2023-05-21T12:33:12.133Z,10.52
2023-05-21T12:35:40.629Z,11.98
2023-05-21T12:38:09.726Z,12.90
2023-05-21T12:40:39.717Z,10.20
2023-05-21T12:43:08.788Z,12.83
2023-05-21T12:45:40.638Z,12.13
2023-05-21T12:48:09.517Z,12.85
2023-05-21T12:50:40.796Z,11.98
2023-05-21T12:53:10.971Z,10.15
2023-05-21T12:55:40.410Z,12.03
2023-05-21T12:58:09.478Z,11.77
2023-05-21T13:00:39.245Z,13.57
2023-05-21T13:03:14.576Z,11.85
2023-05-21T13:05:43.156Z,12.30
2023-05-21T13:08:14.185Z,10.27
2023-05-21T13:10:42.818Z,11.60
2023-05-21T13:13:11.326Z,11.27
2023-05-21T13:15:41.047Z,7.75
2023-05-21T13:18:09.693Z,12.80
2023-05-21T13:20:38.445Z,9.17
2023-05-21T13:23:08.322Z,10.07
2023-05-21T13:25:38.288Z,10.00
2023-05-21T13:28:08.718Z,10.05
2023-05-21T13:30:37.325Z,9.07
2023-05-21T13:33:07.647Z,10.80
2023-05-21T13:35:37.650Z,13.63
2023-05-21T13:38:06.056Z,9.45
2023-05-21T13:40:36.567Z,8.85
2023-05-21T13:43:06.204Z,12.05
2023-05-21T13:45:34.849Z,11.47
2023-05-21T13:48:08.957Z,10.85
2023-05-21T13:50:37.761Z,14.43
2023-05-21T13:53:11.971Z,10.45
2023-05-21T13:55:40.384Z,12.40
2023-05-21T13:58:08.792Z,10.87
2023-05-21T14:00:37.403Z,11.57
2023-05-21T14:03:07.828Z,10.23
2023-05-21T14:05:36.323Z,10.35
2023-05-21T14:08:05.120Z,10.45
2023-05-21T14:10:33.416Z,11.63
2023-05-21T14:13:11.826Z,12.32
2023-05-21T14:15:48.496Z,10.82
2023-05-21T14:18:18.210Z,11.27
2023-05-21T14:20:46.582Z,11.82
2023-05-21T14:23:14.983Z,12.47
2023-05-21T14:25:43.564Z,9.40
2023-05-21T14:28:12.566Z,10.20
2023-05-21T14:30:41.154Z,12.05
2023-05-21T14:33:13.259Z,10.75
2023-05-21T14:35:44.041Z,9.10
2023-05-21T14:38:12.422Z,10.32
2023-05-21T14:40:44.145Z,11.95
2023-05-21T14:43:16.682Z,10.18
2023-05-21T14:45:45.165Z,10.90
2023-05-21T14:48:13.509Z,11.57
2023-05-21T14:50:46.074Z,11.30
2023-05-21T14:53:14.501Z,13.55
2023-05-21T14:55:43.201Z,11.02
2023-05-21T14:58:11.444Z,13.80
2023-05-21T15:00:40.163Z,12.10
2023-05-21T15:03:08.760Z,15.95
2023-05-21T15:05:37.202Z,10.27
2023-05-21T15:08:08.138Z,13.55
2023-05-21T15:10:36.795Z,13.32
2023-05-21T15:13:07.864Z,11.90
2023-05-21T15:15:39.359Z,11.88
2023-05-21T15:18:08.166Z,13.82
2023-05-21T15:20:36.726Z,8.63
2023-05-21T15:23:16.271Z,11.40
2023-05-21T15:26:10.402Z,12.63
2023-05-21T15:29:04.005Z,8.10
2023-05-21T15:32:43.833Z,11.63
2023-05-21T15:35:12.537Z,11.65
2023-05-21T15:37:41.104Z,9.70
2023-05-21T15:40:11.748Z,14.67
2023-05-21T15:42:39.745Z,10.38
2023-05-21T15:45:13.771Z,9.25
2023-05-21T15:47:42.933Z,16.05
2023-05-21T15:50:12.418Z,11.75
2023-05-21T15:52:41.012Z,11.20
2023-05-21T15:55:11.113Z,11.88
2023-05-21T15:57:42.828Z,10.13
2023-05-21T16:00:16.470Z,10.00
2023-05-21T16:02:44.955Z,10.93
2023-05-21T16:05:16.896Z,11.20
2023-05-21T16:07:46.270Z,9.82
2023-05-21T16:10:21.943Z,10.38
2023-05-21T16:12:50.320Z,11.20
2023-05-21T16:15:18.741Z,9.93
2023-05-21T16:17:47.259Z,9.87
2023-05-21T16:20:16.188Z,10.35
2023-05-21T16:22:44.575Z,11.35
2023-05-21T16:25:12.940Z,11.45
2023-05-21T16:27:42.334Z,11.75
2023-05-21T16:30:11.997Z,13.23
2023-05-21T16:32:40.643Z,12.20
2023-05-21T16:35:08.966Z,9.65
2023-05-21T16:37:37.327Z,14.80
2023-05-21T16:40:06.450Z,13.35
2023-05-21T16:42:34.832Z,12.53
2023-05-21T16:45:04.319Z,12.93
2023-05-21T16:47:32.713Z,11.98
2023-05-21T16:50:01.761Z,10.57
2023-05-21T16:52:29.817Z,12.98
2023-05-21T16:54:58.191Z,11.63
2023-05-21T16:57:26.563Z,10.80
2023-05-21T16:59:54.958Z,11.15
2023-05-21T17:02:24.879Z,9.13
2023-05-21T17:09:15.077Z,10.90
2023-05-21T17:11:44.909Z,10.07
2023-05-21T17:14:17.501Z,7.75
2023-05-21T17:16:52.098Z,9.50
2023-05-21T17:19:23.782Z,10.00
2023-05-21T17:21:59.141Z,8.97
2023-05-21T17:24:27.874Z,10.45
2023-05-21T17:26:56.930Z,9.80
2023-05-21T17:29:25.494Z,9.65
2023-05-21T17:31:54.412Z,10.18
2023-05-21T17:34:26.599Z,9.47
2023-05-21T17:36:55.477Z,12.10
2023-05-21T17:39:24.084Z,10.82
2023-05-21T17:41:52.754Z,9.50
2023-05-21T17:44:21.742Z,12.98
2023-05-21T17:47:35.515Z,14.03
2023-05-21T17:50:05.425Z,10.50
2023-05-21T17:52:33.899Z,10.45
2023-05-21T17:55:02.894Z,9.45
2023-05-21T17:57:31.335Z,10.18
2023-05-21T18:00:13.754Z,17.10
2023-05-21T18:02:44.771Z,11.60
2023-05-21T18:05:14.453Z,10.63
2023-05-21T18:07:42.887Z,10.88
2023-05-21T18:10:11.613Z,13.20
2023-05-21T18:12:40.760Z,11.03
2023-05-21T18:15:17.511Z,11.82
2023-05-21T18:18:01.255Z,12.00
2023-05-21T18:20:31.396Z,10.60
2023-05-21T18:23:00.020Z,12.25
2023-05-21T18:25:28.455Z,9.53
2023-05-21T18:27:57.048Z,12.95
2023-05-21T18:30:25.578Z,10.80
2023-05-21T18:33:22.502Z,9.05
2023-05-21T18:35:53.555Z,12.02
2023-05-21T18:38:22.092Z,13.10
2023-05-21T18:40:51.230Z,12.07
2023-05-21T18:43:22.273Z,11.82
2023-05-21T18:45:50.900Z,14.13
2023-05-21T18:48:19.434Z,11.85
2023-05-21T18:50:48.145Z,11.27
2023-05-21T18:53:18.401Z,15.32
2023-05-21T18:55:46.921Z,10.50
2023-05-21T18:58:38.149Z,14.95
2023-05-21T19:01:07.668Z,13.18
2023-05-21T19:03:36.257Z,10.87
2023-05-21T19:06:13.224Z,11.15
2023-05-21T19:08:42.719Z,10.68
2023-05-21T19:11:12.495Z,10.98
2023-05-21T19:13:41.008Z,11.73
2023-05-21T19:16:11.171Z,10.70
2023-05-21T19:18:43.811Z,13.20
2023-05-21T19:21:12.326Z,10.05
2023-05-21T19:23:51.765Z,13.32
2023-05-21T19:26:22.481Z,12.23
2023-05-21T19:28:53.824Z,10.67
2023-05-21T19:31:22.895Z,9.73
2023-05-21T19:33:51.700Z,10.68
2023-05-21T19:36:20.229Z,10.85
2023-05-21T19:38:49.193Z,10.52
2023-05-21T19:41:17.888Z,13.13
2023-05-21T19:43:50.390Z,10.65
2023-05-21T19:46:20.267Z,10.13
2023-05-21T19:48:49.216Z,10.48
2023-05-21T19:51:17.930Z,10.23
2023-05-21T19:53:46.328Z,11.53
2023-05-21T19:56:14.908Z,14.25
2023-05-21T19:58:47.036Z,13.65
2023-05-21T20:01:21.741Z,11.70
2023-05-21T20:03:51.086Z,90.40
2023-05-21T20:06:21.428Z,174.20
2023-05-21T20:08:50.115Z,184.52
2023-05-21T20:11:18.622Z,168.02
2023-05-21T20:13:50.139Z,27.83
2023-05-21T20:16:20.063Z,88.05
2023-05-21T20:18:48.989Z,172.07
2023-05-21T20:21:18.569Z,78.70
2023-05-21T20:23:47.268Z,159.50
2023-05-21T20:26:16.440Z,119.22
2023-05-21T20:28:45.756Z,91.03
2023-05-21T20:31:14.428Z,208.80
2023-05-21T20:33:44.339Z,35.63
2023-05-21T20:36:15.136Z,112.30
2023-05-21T20:38:45.539Z,116.90
2023-05-21T20:41:14.269Z,159.30
2023-05-21T20:43:45.935Z,29.90
2023-05-21T20:46:17.530Z,15.65
2023-05-21T20:48:47.317Z,12.55
2023-05-21T20:51:16.089Z,13.88
2023-05-21T20:53:44.594Z,115.20
2023-05-21T20:56:14.946Z,124.83
2023-05-21T20:58:46.215Z,149.30
2023-05-21T21:01:15.460Z,95.90
2023-05-21T21:03:47.728Z,104.30
2023-05-21T21:06:17.804Z,86.68
2023-05-21T21:08:50.139Z,88.40
2023-05-21T21:11:19.508Z,51.05
2023-05-21T21:13:51.035Z,14.98
2023-05-21T21:16:19.916Z,15.00
2023-05-21T21:18:53.983Z,133.98
2023-05-21T21:21:24.076Z,75.03
2023-05-21T21:23:52.703Z,72.90
2023-05-21T21:26:22.261Z,173.23
2023-05-21T21:28:52.933Z,80.78
2023-05-21T21:31:22.578Z,110.30
2023-05-21T21:33:51.442Z,73.00
2023-05-21T21:36:20.077Z,24.15
2023-05-21T21:38:49.655Z,14.77
2023-05-21T21:41:20.321Z,11.80
2023-05-21T21:43:49.077Z,12.88
2023-05-21T21:46:17.697Z,12.30
2023-05-21T21:48:46.394Z,12.27
2023-05-21T21:51:18.685Z,16.73
2023-05-21T21:53:47.308Z,13.52
2023-05-21T21:56:16.865Z,15.10
2023-05-21T21:58:45.657Z,12.73
2023-05-21T22:01:14.170Z,15.45
2023-05-21T22:03:42.691Z,12.10
2023-05-21T22:06:11.323Z,12.18
2023-05-21T22:08:39.928Z,11.55
2023-05-21T22:11:08.781Z,20.03
2023-05-21T22:13:38.750Z,11.18
2023-05-21T22:16:08.118Z,13.45
2023-05-21T22:18:41.452Z,13.70
2023-05-21T22:21:14.516Z,14.52
2023-05-21T22:23:43.199Z,12.30
2023-05-21T22:26:11.329Z,13.68
2023-05-21T22:28:41.007Z,15.05
2023-05-21T22:31:09.670Z,13.27
2023-05-21T22:33:38.202Z,13.20
2023-05-21T22:36:07.034Z,13.07
2023-05-21T22:38:35.148Z,12.05
2023-05-21T22:41:03.658Z,13.15
2023-05-21T22:43:33.528Z,12.55
2023-05-21T22:46:03.073Z,15.20
2023-05-21T22:48:31.726Z,15.43
2023-05-21T22:51:04.662Z,15.25
2023-05-21T22:53:33.254Z,14.73
2023-05-21T22:56:01.825Z,13.73
2023-05-21T22:58:33.103Z,13.43
2023-05-21T23:01:02.794Z,12.23
2023-05-21T23:03:31.351Z,11.88
2023-05-21T23:06:00.033Z,14.05
2023-05-21T23:08:28.583Z,14.02
2023-05-21T23:10:59.728Z,14.20
2023-05-21T23:13:28.189Z,13.20
2023-05-21T23:15:59.009Z,15.52
2023-05-21T23:18:28.550Z,11.88
2023-05-21T23:20:57.237Z,12.55
2023-05-21T23:23:25.882Z,12.23
2023-05-21T23:25:57.530Z,15.17
2023-05-21T23:28:26.450Z,14.77
2023-05-21T23:30:54.995Z,13.05
2023-05-21T23:33:23.853Z,12.40
2023-05-21T23:35:58.862Z,13.85
2023-05-21T23:38:27.447Z,12.63
2023-05-21T23:40:56.109Z,17.08
2023-05-21T23:43:24.937Z,16.00
2023-05-21T23:45:53.431Z,12.82
2023-05-21T23:48:21.905Z,14.52
2023-05-21T23:50:50.432Z,16.53
2023-05-21T23:53:20.406Z,15.15
2023-05-21T23:55:48.971Z,13.32
2023-05-21T23:58:17.541Z,12.35
